sensor_id;sensor_type;location;lat;lon;timestamp;P1;durP1;ratioP1;P2;durP2;ratioP2
73136;SDS011;67767;45.636;11.756;2023-07-13T00:00:28;6.95;;;2.58;;
73136;SDS011;67767;45.636;11.756;2023-07-13T00:02:55;8.55;;;2.45;;
73136;SDS011;67767;45.636;11.756;2023-07-13T00:05:21;7.77;;;2.60;;
73136;SDS011;67767;45.636;11.756;2023-07-13T00:07:48;8.27;;;2.63;;
73136;SDS011;67767;45.636;11.756;2023-07-13T00:10:17;8.05;;;2.70;;
73136;SDS011;67767;45.636;11.756;2023-07-13T00:12:43;7.47;;;2.60;;
73136;SDS011;67767;45.636;11.756;2023-07-13T00:15:12;6.10;;;2.25;;
73136;SDS011;67767;45.636;11.756;2023-07-13T00:17:41;6.13;;;2.15;;
73136;SDS011;67767;45.636;11.756;2023-07-13T00:20:09;7.72;;;2.28;;
73136;SDS011;67767;45.636;11.756;2023-07-13T00:22:36;6.85;;;2.15;;
73136;SDS011;67767;45.636;11.756;2023-07-13T00:25:02;6.20;;;2.40;;
73136;SDS011;67767;45.636;11.756;2023-07-13T00:27:28;9.10;;;2.08;;
73136;SDS011;67767;45.636;11.756;2023-07-13T00:29:56;6.47;;;2.40;;
73136;SDS011;67767;45.636;11.756;2023-07-13T00:32:22;8.17;;;2.67;;
73136;SDS011;67767;45.636;11.756;2023-07-13T00:34:50;31.30;;;7.35;;
73136;SDS011;67767;45.636;11.756;2023-07-13T00:37:16;13.77;;;2.88;;
73136;SDS011;67767;45.636;11.756;2023-07-13T00:39:42;10.05;;;2.95;;
73136;SDS011;67767;45.636;11.756;2023-07-13T00:42:08;10.00;;;3.10;;
73136;SDS011;67767;45.636;11.756;2023-07-13T00:44:33;7.95;;;3.22;;
73136;SDS011;67767;45.636;11.756;2023-07-13T00:46:59;11.33;;;3.70;;
73136;SDS011;67767;45.636;11.756;2023-07-13T00:49:26;7.28;;;3.10;;
73136;SDS011;67767;45.636;11.756;2023-07-13T00:51:58;6.72;;;3.20;;
73136;SDS011;67767;45.636;11.756;2023-07-13T00:54:34;6.90;;;2.87;;
73136;SDS011;67767;45.636;11.756;2023-07-13T00:57:06;7.07;;;3.15;;
73136;SDS011;67767;45.636;11.756;2023-07-13T00:59:36;7.68;;;3.15;;
73136;SDS011;67767;45.636;11.756;2023-07-13T01:02:04;7.68;;;3.45;;
73136;SDS011;67767;45.636;11.756;2023-07-13T01:04:30;7.77;;;3.40;;
73136;SDS011;67767;45.636;11.756;2023-07-13T01:06:56;7.28;;;3.15;;
73136;SDS011;67767;45.636;11.756;2023-07-13T01:09:22;8.30;;;3.38;;
73136;SDS011;67767;45.636;11.756;2023-07-13T01:11:48;8.80;;;3.43;;
73136;SDS011;67767;45.636;11.756;2023-07-13T01:14:14;7.97;;;3.20;;
73136;SDS011;67767;45.636;11.756;2023-07-13T01:16:42;7.90;;;3.30;;
73136;SDS011;67767;45.636;11.756;2023-07-13T01:19:28;9.38;;;3.75;;
73136;SDS011;67767;45.636;11.756;2023-07-13T01:22:01;10.13;;;3.30;;
73136;SDS011;67767;45.636;11.756;2023-07-13T01:24:27;7.32;;;3.22;;
73136;SDS011;67767;45.636;11.756;2023-07-13T01:26:54;6.78;;;2.83;;
73136;SDS011;67767;45.636;11.756;2023-07-13T01:29:20;7.35;;;3.17;;
73136;SDS011;67767;45.636;11.756;2023-07-13T01:31:46;7.73;;;3.20;;
73136;SDS011;67767;45.636;11.756;2023-07-13T01:34:12;8.98;;;3.40;;
73136;SDS011;67767;45.636;11.756;2023-07-13T01:36:37;10.45;;;3.58;;
73136;SDS011;67767;45.636;11.756;2023-07-13T01:39:03;7.43;;;3.43;;
73136;SDS011;67767;45.636;11.756;2023-07-13T01:41:29;9.25;;;3.50;;
73136;SDS011;67767;45.636;11.756;2023-07-13T01:43:55;7.57;;;3.70;;
73136;SDS011;67767;45.636;11.756;2023-07-13T01:46:21;10.00;;;3.87;;
73136;SDS011;67767;45.636;11.756;2023-07-13T01:48:47;7.28;;;3.65;;
73136;SDS011;67767;45.636;11.756;2023-07-13T01:51:12;9.83;;;3.73;;
73136;SDS011;67767;45.636;11.756;2023-07-13T01:53:38;8.95;;;3.15;;
73136;SDS011;67767;45.636;11.756;2023-07-13T01:56:04;7.73;;;3.33;;
73136;SDS011;67767;45.636;11.756;2023-07-13T01:58:30;7.32;;;3.17;;
73136;SDS011;67767;45.636;11.756;2023-07-13T02:00:55;8.77;;;3.75;;
73136;SDS011;67767;45.636;11.756;2023-07-13T02:03:21;8.87;;;2.93;;
73136;SDS011;67767;45.636;11.756;2023-07-13T02:05:46;7.35;;;3.20;;
73136;SDS011;67767;45.636;11.756;2023-07-13T02:08:12;8.83;;;3.30;;
73136;SDS011;67767;45.636;11.756;2023-07-13T02:10:38;9.67;;;3.17;;
73136;SDS011;67767;45.636;11.756;2023-07-13T02:13:05;7.88;;;3.10;;
73136;SDS011;67767;45.636;11.756;2023-07-13T02:15:31;8.68;;;3.10;;
73136;SDS011;67767;45.636;11.756;2023-07-13T02:17:57;8.47;;;3.00;;
73136;SDS011;67767;45.636;11.756;2023-07-13T02:20:23;8.18;;;3.20;;
73136;SDS011;67767;45.636;11.756;2023-07-13T02:22:50;9.77;;;3.92;;
73136;SDS011;67767;45.636;11.756;2023-07-13T02:25:15;8.43;;;3.60;;
73136;SDS011;67767;45.636;11.756;2023-07-13T02:27:41;9.93;;;3.50;;
73136;SDS011;67767;45.636;11.756;2023-07-13T02:30:10;9.97;;;3.57;;
73136;SDS011;67767;45.636;11.756;2023-07-13T02:32:36;9.20;;;3.95;;
73136;SDS011;67767;45.636;11.756;2023-07-13T02:35:02;7.22;;;3.47;;
73136;SDS011;67767;45.636;11.756;2023-07-13T02:37:28;9.57;;;4.68;;
73136;SDS011;67767;45.636;11.756;2023-07-13T02:39:54;9.67;;;3.97;;
73136;SDS011;67767;45.636;11.756;2023-07-13T02:42:20;10.80;;;4.22;;
73136;SDS011;67767;45.636;11.756;2023-07-13T02:44:46;9.30;;;4.27;;
73136;SDS011;67767;45.636;11.756;2023-07-13T02:47:12;8.77;;;4.90;;
73136;SDS011;67767;45.636;11.756;2023-07-13T02:49:38;9.13;;;4.45;;
73136;SDS011;67767;45.636;11.756;2023-07-13T02:52:04;9.87;;;4.17;;
73136;SDS011;67767;45.636;11.756;2023-07-13T02:54:30;8.15;;;4.20;;
73136;SDS011;67767;45.636;11.756;2023-07-13T02:56:55;9.77;;;4.20;;
73136;SDS011;67767;45.636;11.756;2023-07-13T02:59:21;9.53;;;4.10;;
73136;SDS011;67767;45.636;11.756;2023-07-13T03:01:47;9.73;;;4.38;;
73136;SDS011;67767;45.636;11.756;2023-07-13T03:04:12;9.37;;;4.50;;
73136;SDS011;67767;45.636;11.756;2023-07-13T03:06:38;10.00;;;4.60;;
73136;SDS011;67767;45.636;11.756;2023-07-13T03:09:04;10.37;;;4.40;;
73136;SDS011;67767;45.636;11.756;2023-07-13T03:11:29;10.75;;;4.22;;
73136;SDS011;67767;45.636;11.756;2023-07-13T03:13:56;9.13;;;3.63;;
73136;SDS011;67767;45.636;11.756;2023-07-13T03:16:22;9.63;;;4.00;;
73136;SDS011;67767;45.636;11.756;2023-07-13T03:18:48;8.80;;;4.33;;
73136;SDS011;67767;45.636;11.756;2023-07-13T03:21:14;8.10;;;4.38;;
73136;SDS011;67767;45.636;11.756;2023-07-13T03:23:40;9.55;;;3.90;;
73136;SDS011;67767;45.636;11.756;2023-07-13T03:26:13;9.27;;;4.13;;
73136;SDS011;67767;45.636;11.756;2023-07-13T03:28:41;9.27;;;4.43;;
73136;SDS011;67767;45.636;11.756;2023-07-13T03:31:09;9.45;;;4.30;;
73136;SDS011;67767;45.636;11.756;2023-07-13T03:33:41;9.23;;;4.03;;
73136;SDS011;67767;45.636;11.756;2023-07-13T03:36:11;10.63;;;4.40;;
73136;SDS011;67767;45.636;11.756;2023-07-13T03:38:39;13.45;;;4.70;;
73136;SDS011;67767;45.636;11.756;2023-07-13T03:41:05;7.90;;;3.83;;
73136;SDS011;67767;45.636;11.756;2023-07-13T03:43:30;9.40;;;3.93;;
73136;SDS011;67767;45.636;11.756;2023-07-13T03:45:56;9.13;;;4.20;;
73136;SDS011;67767;45.636;11.756;2023-07-13T03:48:22;8.43;;;3.90;;
73136;SDS011;67767;45.636;11.756;2023-07-13T03:50:47;8.73;;;3.87;;
73136;SDS011;67767;45.636;11.756;2023-07-13T03:53:14;12.55;;;4.38;;
73136;SDS011;67767;45.636;11.756;2023-07-13T03:55:40;8.77;;;4.30;;
73136;SDS011;67767;45.636;11.756;2023-07-13T03:58:26;8.90;;;3.75;;
73136;SDS011;67767;45.636;11.756;2023-07-13T04:00:52;8.50;;;3.77;;
73136;SDS011;67767;45.636;11.756;2023-07-13T04:03:18;7.68;;;3.70;;
73136;SDS011;67767;45.636;11.756;2023-07-13T04:05:44;10.23;;;4.60;;
73136;SDS011;67767;45.636;11.756;2023-07-13T04:08:10;9.70;;;4.20;;
73136;SDS011;67767;45.636;11.756;2023-07-13T04:10:35;9.10;;;4.07;;
73136;SDS011;67767;45.636;11.756;2023-07-13T04:13:01;9.97;;;4.30;;
73136;SDS011;67767;45.636;11.756;2023-07-13T04:15:29;9.23;;;3.67;;
73136;SDS011;67767;45.636;11.756;2023-07-13T04:17:56;10.25;;;4.40;;
73136;SDS011;67767;45.636;11.756;2023-07-13T04:20:22;10.70;;;3.92;;
73136;SDS011;67767;45.636;11.756;2023-07-13T04:22:49;6.90;;;3.45;;
73136;SDS011;67767;45.636;11.756;2023-07-13T04:25:14;8.13;;;4.43;;
73136;SDS011;67767;45.636;11.756;2023-07-13T04:27:40;10.88;;;5.60;;
73136;SDS011;67767;45.636;11.756;2023-07-13T04:30:06;11.00;;;4.00;;
73136;SDS011;67767;45.636;11.756;2023-07-13T04:32:32;9.82;;;4.15;;
73136;SDS011;67767;45.636;11.756;2023-07-13T04:34:58;10.50;;;4.47;;
73136;SDS011;67767;45.636;11.756;2023-07-13T04:37:24;11.50;;;4.17;;
73136;SDS011;67767;45.636;11.756;2023-07-13T04:39:51;13.05;;;4.60;;
73136;SDS011;67767;45.636;11.756;2023-07-13T04:42:17;11.60;;;4.75;;
73136;SDS011;67767;45.636;11.756;2023-07-13T04:44:49;10.82;;;4.95;;
73136;SDS011;67767;45.636;11.756;2023-07-13T04:47:16;8.17;;;4.17;;
73136;SDS011;67767;45.636;11.756;2023-07-13T04:49:42;11.77;;;4.70;;
73136;SDS011;67767;45.636;11.756;2023-07-13T04:52:08;12.73;;;4.40;;
73136;SDS011;67767;45.636;11.756;2023-07-13T04:54:34;9.40;;;4.13;;
73136;SDS011;67767;45.636;11.756;2023-07-13T04:56:59;8.38;;;3.90;;
73136;SDS011;67767;45.636;11.756;2023-07-13T04:59:25;9.63;;;3.85;;
73136;SDS011;67767;45.636;11.756;2023-07-13T05:01:52;10.40;;;4.40;;
73136;SDS011;67767;45.636;11.756;2023-07-13T05:04:18;11.20;;;4.15;;
73136;SDS011;67767;45.636;11.756;2023-07-13T05:06:44;8.25;;;3.42;;
73136;SDS011;67767;45.636;11.756;2023-07-13T05:09:09;9.23;;;3.87;;
73136;SDS011;67767;45.636;11.756;2023-07-13T05:11:35;7.95;;;3.70;;
73136;SDS011;67767;45.636;11.756;2023-07-13T05:14:01;8.47;;;4.40;;
73136;SDS011;67767;45.636;11.756;2023-07-13T05:16:27;10.40;;;4.32;;
73136;SDS011;67767;45.636;11.756;2023-07-13T05:18:52;9.30;;;3.90;;
73136;SDS011;67767;45.636;11.756;2023-07-13T05:21:18;9.13;;;3.43;;
73136;SDS011;67767;45.636;11.756;2023-07-13T05:23:44;8.88;;;3.53;;
73136;SDS011;67767;45.636;11.756;2023-07-13T05:26:10;8.05;;;3.10;;
73136;SDS011;67767;45.636;11.756;2023-07-13T05:28:36;8.67;;;3.40;;
73136;SDS011;67767;45.636;11.756;2023-07-13T05:31:02;9.77;;;5.03;;
73136;SDS011;67767;45.636;11.756;2023-07-13T05:33:28;8.98;;;3.42;;
73136;SDS011;67767;45.636;11.756;2023-07-13T05:35:54;8.90;;;3.75;;
73136;SDS011;67767;45.636;11.756;2023-07-13T05:38:20;11.70;;;3.97;;
73136;SDS011;67767;45.636;11.756;2023-07-13T05:40:46;8.98;;;3.55;;
73136;SDS011;67767;45.636;11.756;2023-07-13T05:43:12;11.00;;;3.90;;
73136;SDS011;67767;45.636;11.756;2023-07-13T05:45:39;8.07;;;3.22;;
73136;SDS011;67767;45.636;11.756;2023-07-13T05:48:05;9.30;;;3.63;;
73136;SDS011;67767;45.636;11.756;2023-07-13T05:50:31;9.68;;;3.70;;
73136;SDS011;67767;45.636;11.756;2023-07-13T05:52:57;8.50;;;3.10;;
73136;SDS011;67767;45.636;11.756;2023-07-13T05:55:22;12.85;;;3.70;;
73136;SDS011;67767;45.636;11.756;2023-07-13T05:57:48;7.47;;;3.20;;
73136;SDS011;67767;45.636;11.756;2023-07-13T06:00:14;11.03;;;3.50;;
73136;SDS011;67767;45.636;11.756;2023-07-13T06:02:41;9.77;;;3.50;;
73136;SDS011;67767;45.636;11.756;2023-07-13T06:05:07;8.73;;;3.25;;
73136;SDS011;67767;45.636;11.756;2023-07-13T06:07:33;8.57;;;3.03;;
73136;SDS011;67767;45.636;11.756;2023-07-13T06:09:59;6.73;;;3.03;;
73136;SDS011;67767;45.636;11.756;2023-07-13T06:12:25;6.67;;;3.20;;
73136;SDS011;67767;45.636;11.756;2023-07-13T06:14:51;6.80;;;2.88;;
73136;SDS011;67767;45.636;11.756;2023-07-13T06:17:16;9.20;;;2.63;;
73136;SDS011;67767;45.636;11.756;2023-07-13T06:19:43;9.40;;;2.90;;
73136;SDS011;67767;45.636;11.756;2023-07-13T06:22:09;6.03;;;2.50;;
73136;SDS011;67767;45.636;11.756;2023-07-13T06:24:35;8.07;;;2.47;;
73136;SDS011;67767;45.636;11.756;2023-07-13T06:27:00;10.10;;;2.83;;
73136;SDS011;67767;45.636;11.756;2023-07-13T06:29:26;6.18;;;1.98;;
73136;SDS011;67767;45.636;11.756;2023-07-13T06:31:52;6.00;;;2.27;;
73136;SDS011;67767;45.636;11.756;2023-07-13T06:34:18;8.52;;;2.08;;
73136;SDS011;67767;45.636;11.756;2023-07-13T06:36:44;7.57;;;2.20;;
73136;SDS011;67767;45.636;11.756;2023-07-13T06:39:09;7.38;;;2.38;;
73136;SDS011;67767;45.636;11.756;2023-07-13T06:41:35;5.47;;;1.60;;
73136;SDS011;67767;45.636;11.756;2023-07-13T06:44:01;6.63;;;1.77;;
73136;SDS011;67767;45.636;11.756;2023-07-13T06:46:28;7.63;;;2.47;;
73136;SDS011;67767;45.636;11.756;2023-07-13T06:48:54;6.23;;;1.63;;
73136;SDS011;67767;45.636;11.756;2023-07-13T06:51:20;4.43;;;1.80;;
73136;SDS011;67767;45.636;11.756;2023-07-13T06:53:46;5.05;;;2.00;;
73136;SDS011;67767;45.636;11.756;2023-07-13T06:56:12;5.87;;;1.90;;
73136;SDS011;67767;45.636;11.756;2023-07-13T06:58:37;7.72;;;2.97;;
73136;SDS011;67767;45.636;11.756;2023-07-13T07:01:04;5.57;;;2.00;;
73136;SDS011;67767;45.636;11.756;2023-07-13T07:03:29;6.05;;;1.90;;
73136;SDS011;67767;45.636;11.756;2023-07-13T07:06:10;6.55;;;1.77;;
73136;SDS011;67767;45.636;11.756;2023-07-13T07:08:39;4.97;;;1.80;;
73136;SDS011;67767;45.636;11.756;2023-07-13T07:11:05;6.05;;;1.60;;
73136;SDS011;67767;45.636;11.756;2023-07-13T07:13:33;6.20;;;1.85;;
73136;SDS011;67767;45.636;11.756;2023-07-13T07:15:59;8.10;;;2.07;;
73136;SDS011;67767;45.636;11.756;2023-07-13T07:18:25;5.00;;;2.20;;
73136;SDS011;67767;45.636;11.756;2023-07-13T07:20:51;5.10;;;2.00;;
73136;SDS011;67767;45.636;11.756;2023-07-13T07:23:17;5.22;;;2.08;;
73136;SDS011;67767;45.636;11.756;2023-07-13T07:25:43;6.40;;;2.00;;
73136;SDS011;67767;45.636;11.756;2023-07-13T07:28:09;7.00;;;2.47;;
73136;SDS011;67767;45.636;11.756;2023-07-13T07:30:36;8.70;;;2.75;;
73136;SDS011;67767;45.636;11.756;2023-07-13T07:33:03;9.30;;;3.45;;
73136;SDS011;67767;45.636;11.756;2023-07-13T07:35:28;6.83;;;2.93;;
73136;SDS011;67767;45.636;11.756;2023-07-13T07:37:54;10.93;;;3.65;;
73136;SDS011;67767;45.636;11.756;2023-07-13T07:40:20;6.97;;;2.87;;
73136;SDS011;67767;45.636;11.756;2023-07-13T07:42:46;6.50;;;2.35;;
73136;SDS011;67767;45.636;11.756;2023-07-13T07:45:12;7.22;;;2.60;;
73136;SDS011;67767;45.636;11.756;2023-07-13T07:47:39;8.05;;;2.42;;
73136;SDS011;67767;45.636;11.756;2023-07-13T07:50:04;10.67;;;3.43;;
73136;SDS011;67767;45.636;11.756;2023-07-13T07:52:31;8.82;;;3.50;;
73136;SDS011;67767;45.636;11.756;2023-07-13T07:54:56;9.60;;;3.60;;
73136;SDS011;67767;45.636;11.756;2023-07-13T07:57:22;6.65;;;2.88;;
73136;SDS011;67767;45.636;11.756;2023-07-13T07:59:48;8.43;;;3.53;;
73136;SDS011;67767;45.636;11.756;2023-07-13T08:02:13;8.65;;;3.42;;
73136;SDS011;67767;45.636;11.756;2023-07-13T08:04:39;9.63;;;3.53;;
73136;SDS011;67767;45.636;11.756;2023-07-13T08:07:05;10.23;;;4.40;;
73136;SDS011;67767;45.636;11.756;2023-07-13T08:09:31;12.73;;;5.25;;
73136;SDS011;67767;45.636;11.756;2023-07-13T08:11:57;11.40;;;4.77;;
73136;SDS011;67767;45.636;11.756;2023-07-13T08:14:23;17.92;;;6.97;;
73136;SDS011;67767;45.636;11.756;2023-07-13T08:16:48;14.63;;;7.43;;
73136;SDS011;67767;45.636;11.756;2023-07-13T08:19:14;15.73;;;5.43;;
73136;SDS011;67767;45.636;11.756;2023-07-13T08:21:40;9.23;;;4.57;;
73136;SDS011;67767;45.636;11.756;2023-07-13T08:24:08;10.00;;;4.85;;
73136;SDS011;67767;45.636;11.756;2023-07-13T08:26:34;12.30;;;6.00;;
73136;SDS011;67767;45.636;11.756;2023-07-13T08:29:00;9.68;;;5.70;;
73136;SDS011;67767;45.636;11.756;2023-07-13T08:31:26;15.30;;;6.17;;
73136;SDS011;67767;45.636;11.756;2023-07-13T08:33:51;11.23;;;5.90;;
73136;SDS011;67767;45.636;11.756;2023-07-13T08:36:17;12.33;;;6.27;;
73136;SDS011;67767;45.636;11.756;2023-07-13T08:38:43;11.60;;;6.07;;
73136;SDS011;67767;45.636;11.756;2023-07-13T08:41:13;10.87;;;6.47;;
73136;SDS011;67767;45.636;11.756;2023-07-13T08:43:42;13.18;;;6.28;;
73136;SDS011;67767;45.636;11.756;2023-07-13T08:49:12;9.35;;;5.85;;
73136;SDS011;67767;45.636;11.756;2023-07-13T08:54:31;12.50;;;6.97;;
73136;SDS011;67767;45.636;11.756;2023-07-13T08:57:03;13.63;;;6.13;;
73136;SDS011;67767;45.636;11.756;2023-07-13T08:59:38;10.43;;;6.80;;
73136;SDS011;67767;45.636;11.756;2023-07-13T09:02:20;9.35;;;6.07;;
73136;SDS011;67767;45.636;11.756;2023-07-13T09:04:49;11.00;;;7.03;;
73136;SDS011;67767;45.636;11.756;2023-07-13T09:07:26;11.67;;;7.57;;
73136;SDS011;67767;45.636;11.756;2023-07-13T09:13:00;13.48;;;7.15;;
73136;SDS011;67767;45.636;11.756;2023-07-13T09:16:04;12.45;;;6.93;;
73136;SDS011;67767;45.636;11.756;2023-07-13T09:18:35;12.05;;;6.55;;
73136;SDS011;67767;45.636;11.756;2023-07-13T09:21:05;13.80;;;7.30;;
73136;SDS011;67767;45.636;11.756;2023-07-13T09:23:36;12.85;;;7.22;;
73136;SDS011;67767;45.636;11.756;2023-07-13T09:26:09;12.93;;;7.30;;
73136;SDS011;67767;45.636;11.756;2023-07-13T09:28:45;14.93;;;7.80;;
73136;SDS011;67767;45.636;11.756;2023-07-13T09:31:17;13.57;;;7.85;;
73136;SDS011;67767;45.636;11.756;2023-07-13T09:34:04;18.17;;;7.90;;
73136;SDS011;67767;45.636;11.756;2023-07-13T09:36:35;12.15;;;7.43;;
73136;SDS011;67767;45.636;11.756;2023-07-13T09:39:05;12.75;;;7.38;;
73136;SDS011;67767;45.636;11.756;2023-07-13T09:41:37;14.53;;;6.87;;
73136;SDS011;67767;45.636;11.756;2023-07-13T09:44:09;16.13;;;6.90;;
73136;SDS011;67767;45.636;11.756;2023-07-13T09:46:46;12.52;;;7.13;;
73136;SDS011;67767;45.636;11.756;2023-07-13T09:49:17;14.63;;;7.18;;
73136;SDS011;67767;45.636;11.756;2023-07-13T09:51:44;14.05;;;7.55;;
73136;SDS011;67767;45.636;11.756;2023-07-13T09:54:23;14.17;;;6.37;;
73136;SDS011;67767;45.636;11.756;2023-07-13T09:56:54;12.48;;;6.93;;
73136;SDS011;67767;45.636;11.756;2023-07-13T09:59:27;13.43;;;7.88;;
73136;SDS011;67767;45.636;11.756;2023-07-13T10:01:58;12.88;;;7.10;;
73136;SDS011;67767;45.636;11.756;2023-07-13T10:04:31;13.70;;;7.43;;
73136;SDS011;67767;45.636;11.756;2023-07-13T10:07:06;12.27;;;7.60;;
73136;SDS011;67767;45.636;11.756;2023-07-13T10:09:38;13.88;;;7.93;;
73136;SDS011;67767;45.636;11.756;2023-07-13T10:12:04;12.20;;;7.75;;
73136;SDS011;67767;45.636;11.756;2023-07-13T10:14:39;13.30;;;7.40;;
73136;SDS011;67767;45.636;11.756;2023-07-13T10:17:08;11.63;;;7.27;;
73136;SDS011;67767;45.636;11.756;2023-07-13T10:19:39;11.48;;;7.10;;
73136;SDS011;67767;45.636;11.756;2023-07-13T10:24:45;16.90;;;7.85;;
73136;SDS011;67767;45.636;11.756;2023-07-13T10:27:16;12.00;;;8.13;;
73136;SDS011;67767;45.636;11.756;2023-07-13T10:29:43;12.47;;;6.30;;
73136;SDS011;67767;45.636;11.756;2023-07-13T10:32:14;9.23;;;5.28;;
73136;SDS011;67767;45.636;11.756;2023-07-13T10:34:40;12.82;;;5.75;;
73136;SDS011;67767;45.636;11.756;2023-07-13T10:37:16;9.80;;;5.13;;
73136;SDS011;67767;45.636;11.756;2023-07-13T10:39:48;9.35;;;5.47;;
73136;SDS011;67767;45.636;11.756;2023-07-13T10:42:17;5.43;;;2.27;;
73136;SDS011;67767;45.636;11.756;2023-07-13T10:44:54;8.50;;;2.42;;
73136;SDS011;67767;45.636;11.756;2023-07-13T10:47:19;6.45;;;2.45;;
73136;SDS011;67767;45.636;11.756;2023-07-13T10:49:45;4.63;;;1.80;;
73136;SDS011;67767;45.636;11.756;2023-07-13T10:55:40;5.85;;;1.90;;
73136;SDS011;67767;45.636;11.756;2023-07-13T10:58:23;5.00;;;1.90;;
73136;SDS011;67767;45.636;11.756;2023-07-13T11:03:32;5.97;;;2.17;;
73136;SDS011;67767;45.636;11.756;2023-07-13T11:06:34;8.52;;;2.50;;
73136;SDS011;67767;45.636;11.756;2023-07-13T11:12:48;7.25;;;3.47;;
73136;SDS011;67767;45.636;11.756;2023-07-13T11:22:43;7.43;;;2.85;;
73136;SDS011;67767;45.636;11.756;2023-07-13T11:41:00;6.45;;;2.45;;
73136;SDS011;67767;45.636;11.756;2023-07-13T11:43:30;5.20;;;2.00;;
73136;SDS011;67767;45.636;11.756;2023-07-13T11:45:55;5.55;;;2.15;;
73136;SDS011;67767;45.636;11.756;2023-07-13T11:48:30;7.93;;;2.10;;
73136;SDS011;67767;45.636;11.756;2023-07-13T11:51:00;5.80;;;1.90;;
73136;SDS011;67767;45.636;11.756;2023-07-13T11:53:32;6.55;;;2.63;;
73136;SDS011;67767;45.636;11.756;2023-07-13T11:56:05;6.03;;;2.22;;
73136;SDS011;67767;45.636;11.756;2023-07-13T11:58:31;6.00;;;2.70;;
73136;SDS011;67767;45.636;11.756;2023-07-13T12:00:59;6.53;;;2.77;;
73136;SDS011;67767;45.636;11.756;2023-07-13T12:03:27;7.57;;;2.30;;
73136;SDS011;67767;45.636;11.756;2023-07-13T12:08:38;8.30;;;2.70;;
73136;SDS011;67767;45.636;11.756;2023-07-13T12:11:06;6.05;;;2.70;;
73136;SDS011;67767;45.636;11.756;2023-07-13T12:13:40;6.40;;;2.40;;
73136;SDS011;67767;45.636;11.756;2023-07-13T12:16:15;9.05;;;2.65;;
73136;SDS011;67767;45.636;11.756;2023-07-13T12:18:42;7.80;;;2.65;;
73136;SDS011;67767;45.636;11.756;2023-07-13T12:21:13;6.33;;;2.60;;
73136;SDS011;67767;45.636;11.756;2023-07-13T12:23:42;9.18;;;2.83;;
73136;SDS011;67767;45.636;11.756;2023-07-13T12:26:09;8.65;;;3.00;;
73136;SDS011;67767;45.636;11.756;2023-07-13T12:28:37;6.93;;;2.90;;
73136;SDS011;67767;45.636;11.756;2023-07-13T12:31:19;5.47;;;2.25;;
73136;SDS011;67767;45.636;11.756;2023-07-13T12:33:47;7.67;;;2.80;;
73136;SDS011;67767;45.636;11.756;2023-07-13T12:36:15;7.32;;;2.67;;
73136;SDS011;67767;45.636;11.756;2023-07-13T12:38:41;5.90;;;2.22;;
73136;SDS011;67767;45.636;11.756;2023-07-13T12:41:11;7.00;;;2.78;;
73136;SDS011;67767;45.636;11.756;2023-07-13T12:43:37;8.57;;;2.87;;
73136;SDS011;67767;45.636;11.756;2023-07-13T12:46:24;6.60;;;2.95;;
73136;SDS011;67767;45.636;11.756;2023-07-13T12:48:50;6.20;;;2.83;;
73136;SDS011;67767;45.636;11.756;2023-07-13T12:51:20;7.75;;;2.83;;
73136;SDS011;67767;45.636;11.756;2023-07-13T12:53:49;8.07;;;2.83;;
73136;SDS011;67767;45.636;11.756;2023-07-13T12:56:21;9.98;;;3.30;;
73136;SDS011;67767;45.636;11.756;2023-07-13T12:58:51;8.13;;;2.70;;
73136;SDS011;67767;45.636;11.756;2023-07-13T13:01:22;9.05;;;3.10;;
73136;SDS011;67767;45.636;11.756;2023-07-13T13:03:51;8.85;;;4.30;;
73136;SDS011;67767;45.636;11.756;2023-07-13T13:06:20;6.97;;;2.90;;
73136;SDS011;67767;45.636;11.756;2023-07-13T13:08:49;7.38;;;2.67;;
73136;SDS011;67767;45.636;11.756;2023-07-13T13:11:18;7.18;;;3.00;;
73136;SDS011;67767;45.636;11.756;2023-07-13T13:13:44;7.20;;;3.13;;
73136;SDS011;67767;45.636;11.756;2023-07-13T13:18:52;7.70;;;3.17;;
73136;SDS011;67767;45.636;11.756;2023-07-13T13:21:20;11.18;;;3.50;;
73136;SDS011;67767;45.636;11.756;2023-07-13T13:23:46;7.32;;;3.67;;
73136;SDS011;67767;45.636;11.756;2023-07-13T13:26:15;8.10;;;3.63;;
73136;SDS011;67767;45.636;11.756;2023-07-13T13:28:41;8.18;;;3.35;;
73136;SDS011;67767;45.636;11.756;2023-07-13T13:31:09;7.68;;;3.90;;
73136;SDS011;67767;45.636;11.756;2023-07-13T13:33:37;7.70;;;3.70;;
73136;SDS011;67767;45.636;11.756;2023-07-13T13:36:09;8.50;;;3.55;;
73136;SDS011;67767;45.636;11.756;2023-07-13T13:38:48;8.03;;;4.13;;
73136;SDS011;67767;45.636;11.756;2023-07-13T13:41:15;6.05;;;3.30;;
73136;SDS011;67767;45.636;11.756;2023-07-13T13:43:41;10.40;;;4.40;;
73136;SDS011;67767;45.636;11.756;2023-07-13T13:46:19;7.35;;;3.08;;
73136;SDS011;67767;45.636;11.756;2023-07-13T13:48:50;8.77;;;3.70;;
73136;SDS011;67767;45.636;11.756;2023-07-13T13:51:16;9.13;;;3.40;;
73136;SDS011;67767;45.636;11.756;2023-07-13T13:53:44;8.48;;;3.38;;
73136;SDS011;67767;45.636;11.756;2023-07-13T13:56:11;7.65;;;3.30;;
73136;SDS011;67767;45.636;11.756;2023-07-13T13:58:38;8.85;;;3.15;;
73136;SDS011;67767;45.636;11.756;2023-07-13T14:01:04;7.28;;;3.15;;
73136;SDS011;67767;45.636;11.756;2023-07-13T14:03:33;7.60;;;3.10;;
73136;SDS011;67767;45.636;11.756;2023-07-13T14:05:59;6.88;;;3.17;;
73136;SDS011;67767;45.636;11.756;2023-07-13T14:08:25;9.18;;;3.35;;
73136;SDS011;67767;45.636;11.756;2023-07-13T14:10:51;8.80;;;3.47;;
73136;SDS011;67767;45.636;11.756;2023-07-13T14:13:21;10.23;;;3.60;;
73136;SDS011;67767;45.636;11.756;2023-07-13T14:15:51;7.80;;;3.53;;
73136;SDS011;67767;45.636;11.756;2023-07-13T14:18:18;11.02;;;5.13;;
73136;SDS011;67767;45.636;11.756;2023-07-13T14:20:44;10.17;;;3.60;;
73136;SDS011;67767;45.636;11.756;2023-07-13T14:23:12;8.67;;;3.57;;
73136;SDS011;67767;45.636;11.756;2023-07-13T14:25:39;7.53;;;3.53;;
73136;SDS011;67767;45.636;11.756;2023-07-13T14:28:38;9.25;;;3.35;;
73136;SDS011;67767;45.636;11.756;2023-07-13T14:30:56;11.00;;;3.65;;
73136;SDS011;67767;45.636;11.756;2023-07-13T14:33:22;8.00;;;3.33;;
73136;SDS011;67767;45.636;11.756;2023-07-13T14:35:49;9.45;;;3.40;;
73136;SDS011;67767;45.636;11.756;2023-07-13T14:38:16;10.38;;;3.33;;
73136;SDS011;67767;45.636;11.756;2023-07-13T14:40:44;11.03;;;3.90;;
73136;SDS011;67767;45.636;11.756;2023-07-13T14:43:13;9.15;;;3.88;;
73136;SDS011;67767;45.636;11.756;2023-07-13T14:45:42;8.70;;;3.90;;
73136;SDS011;67767;45.636;11.756;2023-07-13T14:48:16;8.55;;;3.65;;
73136;SDS011;67767;45.636;11.756;2023-07-13T14:50:49;7.10;;;2.30;;
73136;SDS011;67767;45.636;11.756;2023-07-13T14:53:21;5.37;;;2.23;;
73136;SDS011;67767;45.636;11.756;2023-07-13T14:55:47;6.30;;;2.05;;
73136;SDS011;67767;45.636;11.756;2023-07-13T14:58:12;12.23;;;3.40;;
73136;SDS011;67767;45.636;11.756;2023-07-13T15:00:38;10.77;;;3.27;;
73136;SDS011;67767;45.636;11.756;2023-07-13T15:03:05;9.32;;;2.35;;
73136;SDS011;67767;45.636;11.756;2023-07-13T15:05:44;6.93;;;2.25;;
73136;SDS011;67767;45.636;11.756;2023-07-13T15:08:10;6.15;;;2.08;;
73136;SDS011;67767;45.636;11.756;2023-07-13T15:10:36;7.83;;;2.60;;
73136;SDS011;67767;45.636;11.756;2023-07-13T15:13:22;6.22;;;2.60;;
73136;SDS011;67767;45.636;11.756;2023-07-13T15:15:52;6.82;;;2.42;;
73136;SDS011;67767;45.636;11.756;2023-07-13T15:18:19;7.15;;;2.58;;
73136;SDS011;67767;45.636;11.756;2023-07-13T15:20:47;8.63;;;2.70;;
73136;SDS011;67767;45.636;11.756;2023-07-13T15:23:15;7.20;;;2.67;;
73136;SDS011;67767;45.636;11.756;2023-07-13T15:25:41;8.82;;;3.13;;